Time;durP1;ratioP1;P1;durP2;ratioP2;P2;SDS_P1;SDS_P2;PMS_P1;PMS_P2;Temp;Humidity;BMP_temperature;BMP_pressure;BME280_temperature;BME280_humidity;BME280_pressure;Samples;Min_cycle;Max_cycle;Signal;HPM_P1;HPM_P2
2022/02/22 00:02:00;;;;;;;1.00;0.47;;;5.00;79.20;;;;;;4964818;28;20046;-73
2022/02/22 00:04:26;;;;;;;0.85;0.10;;;5.10;78.90;;;;;;4981084;28;20035;-73
2022/02/22 00:06:52;;;;;;;0.65;0.20;;;4.90;79.50;;;;;;4971746;28;20063;-73
2022/02/22 00:09:18;;;;;;;0.65;0.35;;;5.10;78.80;;;;;;4975224;28;20109;-73
2022/02/22 00:11:44;;;;;;;0.38;0.13;;;5.10;79.20;;;;;;4974437;28;20035;-72
2022/02/22 00:14:12;;;;;;;0.57;0.20;;;5.20;79.50;;;;;;4974406;28;20421;-73
2022/02/22 00:16:37;;;;;;;0.45;0.15;;;5.40;78.80;;;;;;4975350;28;20086;-73
2022/02/22 00:19:03;;;;;;;0.40;0.20;;;5.30;78.90;;;;;;4975172;28;20087;-73
2022/02/22 00:21:28;;;;;;;0.03;0.03;;;5.10;79.80;;;;;;4975415;28;20592;-73
2022/02/22 00:23:54;;;;;;;0.28;0.10;;;4.90;80.50;;;;;;4974738;28;20031;-73
2022/02/22 00:26:20;;;;;;;0.30;0.13;;;5.30;79.50;;;;;;4975860;28;20039;-73
2022/02/22 00:28:46;;;;;;;0.22;0.10;;;5.40;78.90;;;;;;4975601;28;20384;-73
2022/02/22 00:31:11;;;;;;;0.45;0.40;;;5.30;79.50;;;;;;4974720;28;20031;-73
2022/02/22 00:33:37;;;;;;;0.43;0.20;;;5.10;80.50;;;;;;4974174;28;20030;-73
2022/02/22 00:36:03;;;;;;;1.27;0.20;;;5.00;80.40;;;;;;4974908;28;20041;-73
2022/02/22 00:38:29;;;;;;;0.55;0.20;;;5.00;80.90;;;;;;4975235;28;20117;-72
2022/02/22 00:40:55;;;;;;;2.45;0.10;;;5.00;81.00;;;;;;4969139;28;20080;-73
2022/02/22 00:43:20;;;;;;;0.40;0.13;;;5.30;80.40;;;;;;4964940;28;20528;-73
2022/02/22 00:45:46;;;;;;;0.68;0.20;;;5.30;80.50;;;;;;4974759;28;20408;-73
2022/02/22 00:48:12;;;;;;;0.95;0.17;;;5.10;81.10;;;;;;4973875;28;20034;-72
2022/02/22 00:50:38;;;;;;;1.27;0.20;;;5.30;80.50;;;;;;4972698;28;20456;-72
2022/02/22 00:53:04;;;;;;;0.32;0.20;;;5.00;81.70;;;;;;4974281;28;20030;-73
2022/02/22 00:55:31;;;;;;;0.85;0.20;;;4.80;82.50;;;;;;4974716;28;20027;-73
2022/02/22 00:57:57;;;;;;;0.63;0.28;;;4.80;83.00;;;;;;4974112;28;20058;-73
2022/02/22 01:00:23;;;;;;;0.30;0.13;;;4.70;83.60;;;;;;4961343;28;20038;-73
2022/02/22 01:02:49;;;;;;;0.35;0.20;;;4.70;83.60;;;;;;4974186;28;20101;-73
2022/02/22 01:05:15;;;;;;;0.80;0.20;;;4.60;84.20;;;;;;4974346;28;20109;-73
2022/02/22 01:07:41;;;;;;;1.60;0.10;;;4.60;83.90;;;;;;4974606;28;20122;-73
2022/02/22 01:10:07;;;;;;;0.20;0.10;;;4.70;84.00;;;;;;4983731;28;20157;-73
2022/02/22 01:12:33;;;;;;;1.85;0.28;;;5.10;82.80;;;;;;4975074;28;20042;-73
2022/02/22 01:14:59;;;;;;;0.10;0.00;;;5.00;83.10;;;;;;4973922;28;20043;-73
2022/02/22 03:02:01;;;;;;;1.08;0.10;;;4.20;89.50;;;;;;3294256;28;21952;-72
2022/02/22 03:04:26;;;;;;;;;;;4.10;90.10;;;;;;4970319;28;20074;-71
2022/02/22 03:06:52;;;;;;;0.10;0.10;;;4.30;89.00;;;;;;4987559;28;20020;-71
2022/02/22 03:09:18;;;;;;;0.98;0.25;;;4.50;88.40;;;;;;4987263;28;20597;-71
2022/02/22 03:11:43;;;;;;;0.65;0.20;;;4.60;88.10;;;;;;4972789;28;20532;-71
2022/02/22 03:14:09;;;;;;;0.38;0.10;;;4.40;89.10;;;;;;4971664;28;20077;-72
2022/02/22 03:16:35;;;;;;;0.47;0.17;;;4.40;88.40;;;;;;4953165;28;20409;-71
2022/02/22 03:19:04;;;;;;;3.38;0.20;;;4.40;88.90;;;;;;4970808;28;20031;-71
2022/02/22 03:21:31;;;;;;;0.00;0.00;;;4.30;89.10;;;;;;4972224;28;20065;-71
2022/02/22 03:23:59;;;;;;;0.10;0.10;;;4.40;89.10;;;;;;4972027;28;20054;-71
2022/02/22 03:26:26;;;;;;;0.73;0.10;;;4.40;89.00;;;;;;4968298;28;20529;-71
2022/02/22 03:28:52;;;;;;;0.47;0.10;;;4.30;89.50;;;;;;4952749;28;20062;-71
2022/02/22 03:31:18;;;;;;;0.77;0.15;;;4.30;89.40;;;;;;4952889;28;20023;-71
2022/02/22 03:33:44;;;;;;;0.13;0.03;;;4.20;89.70;;;;;;4969946;28;20120;-71
2022/02/22 03:36:10;;;;;;;0.55;0.38;;;3.90;90.40;;;;;;4970616;28;20118;-71
2022/02/22 03:38:35;;;;;;;1.30;0.20;;;3.80;90.60;;;;;;4970366;28;20470;-71
2022/02/22 03:41:02;;;;;;;0.00;0.00;;;3.90;90.40;;;;;;4971670;28;20113;-72
2022/02/22 03:43:28;;;;;;;0.03;0.00;;;4.00;90.40;;;;;;4971088;28;20121;-71
2022/02/22 03:45:54;;;;;;;0.40;0.10;;;4.20;90.00;;;;;;4966440;28;20046;-71
2022/02/22 03:48:20;;;;;;;1.90;0.68;;;4.30;89.70;;;;;;4971668;28;20031;-71
2022/02/22 03:50:46;;;;;;;0.55;0.10;;;4.40;89.30;;;;;;4971871;28;20027;-71
2022/02/22 03:53:12;;;;;;;0.10;0.00;;;4.40;89.50;;;;;;4971513;28;20061;-71
2022/02/22 03:55:38;;;;;;;0.10;0.05;;;4.40;89.50;;;;;;4971393;28;20038;-71
2022/02/22 03:58:03;;;;;;;0.50;0.17;;;4.30;89.80;;;;;;4971485;28;20046;-71
2022/02/22 04:00:30;;;;;;;0.47;0.15;;;4.30;89.60;;;;;;4969969;28;20027;-72
2022/02/22 04:02:56;;;;;;;1.75;0.17;;;4.40;89.30;;;;;;4967453;28;20057;-73
2022/02/22 04:05:22;;;;;;;0.52;0.15;;;4.40;89.40;;;;;;4964217;28;20030;-73
2022/02/22 04:07:51;;;;;;;1.33;0.47;;;4.50;89.40;;;;;;4979707;28;20023;-73
2022/02/22 04:10:17;;;;;;;0.75;0.25;;;4.50;89.30;;;;;;4964499;28;20027;-73
2022/02/22 04:12:43;;;;;;;0.55;0.30;;;4.50;89.30;;;;;;4963288;28;20029;-73
2022/02/22 04:15:10;;;;;;;0.52;0.30;;;4.40;89.30;;;;;;4964334;28;20050;-74
2022/02/22 04:17:36;;;;;;;1.73;0.70;;;4.30;90.10;;;;;;4964752;28;20027;-73
2022/02/22 04:20:03;;;;;;;6.40;0.20;;;4.20;90.30;;;;;;4967397;28;20031;-73
2022/02/22 04:22:28;;;;;;;0.20;0.08;;;3.80;90.70;;;;;;4967269;28;20031;-73
2022/02/22 04:24:54;;;;;;;0.65;0.20;;;3.70;91.00;;;;;;4967027;28;20465;-73
2022/02/22 04:27:20;;;;;;;1.55;0.10;;;3.70;91.10;;;;;;4966472;28;20030;-73
2022/02/22 04:29:45;;;;;;;0.43;0.17;;;3.80;90.90;;;;;;4967173;28;20082;-73
2022/02/22 04:32:11;;;;;;;0.10;0.10;;;3.90;90.70;;;;;;4966922;28;20061;-73
2022/02/22 04:34:37;;;;;;;2.08;0.20;;;4.00;90.50;;;;;;4967252;28;20034;-73
2022/02/22 04:37:03;;;;;;;0.80;0.17;;;4.00;90.40;;;;;;4967241;28;20525;-73
2022/02/22 04:39:29;;;;;;;0.03;0.03;;;4.10;90.40;;;;;;4981888;28;20456;-73
2022/02/22 04:41:55;;;;;;;0.20;0.10;;;4.00;90.30;;;;;;4966943;28;20043;-73
2022/02/22 04:44:21;;;;;;;1.33;0.20;;;4.10;90.30;;;;;;4967336;28;20082;-73
2022/02/22 04:46:48;;;;;;;0.00;0.00;;;4.10;90.40;;;;;;4965109;28;20404;-73
2022/02/22 04:49:14;;;;;;;0.13;0.00;;;4.00;90.30;;;;;;4963789;28;20150;-73
2022/02/22 04:51:43;;;;;;;0.38;0.15;;;4.10;90.30;;;;;;4963892;28;20082;-73
2022/02/22 04:54:09;;;;;;;0.68;0.30;;;4.10;90.20;;;;;;4967697;28;20435;-73
2022/02/22 04:56:34;;;;;;;1.80;0.20;;;3.80;90.60;;;;;;4968443;28;20654;-73
2022/02/22 04:59:00;;;;;;;0.95;0.35;;;3.90;90.50;;;;;;4965514;28;20042;-73
2022/02/22 05:01:26;;;;;;;0.65;0.20;;;3.60;91.00;;;;;;4950045;28;20042;-73
2022/02/22 05:03:52;;;;;;;0.38;0.00;;;3.50;91.30;;;;;;4967256;28;20062;-73
2022/02/22 05:06:17;;;;;;;1.52;0.35;;;3.80;90.60;;;;;;4966963;28;20027;-73
2022/02/22 05:08:43;;;;;;;2.95;0.22;;;4.00;90.70;;;;;;4967579;28;20113;-74
2022/02/22 05:11:09;;;;;;;0.82;0.20;;;3.90;90.60;;;;;;4967278;28;20099;-73
2022/02/22 05:13:35;;;;;;;0.98;0.30;;;3.90;90.60;;;;;;4966326;28;20069;-73
2022/02/22 05:16:02;;;;;;;0.43;0.10;;;4.00;90.60;;;;;;4966529;28;20428;-73
2022/02/22 05:18:28;;;;;;;0.73;0.30;;;4.00;90.40;;;;;;4967123;28;20027;-73
2022/02/22 05:20:54;;;;;;;0.93;0.30;;;3.70;90.70;;;;;;4966471;28;20042;-73
2022/02/22 05:23:34;;;;;;;0.32;0.10;;;3.80;90.70;;;;;;4966557;28;20322;-73
2022/02/22 05:26:01;;;;;;;0.63;0.30;;;3.90;90.80;;;;;;4967808;28;20054;-73
2022/02/22 05:28:27;;;;;;;1.77;0.40;;;3.90;90.80;;;;;;4966036;28;20445;-73
2022/02/22 05:30:54;;;;;;;0.30;0.17;;;4.00;90.70;;;;;;4966750;28;20034;-73
2022/02/22 05:33:20;;;;;;;1.13;0.40;;;4.00;90.40;;;;;;4966615;28;20085;-73
2022/02/22 05:35:47;;;;;;;1.48;0.08;;;3.80;90.80;;;;;;4967383;28;20031;-74
2022/02/22 05:38:13;;;;;;;0.47;0.10;;;3.70;91.00;;;;;;4966903;28;20043;-73
2022/02/22 05:40:39;;;;;;;1.55;0.20;;;4.00;90.80;;;;;;4966827;28;20038;-73
2022/02/22 05:43:05;;;;;;;1.85;0.25;;;3.80;91.00;;;;;;4966689;28;20346;-73
2022/02/22 05:45:31;;;;;;;0.65;0.32;;;3.80;91.00;;;;;;4966832;28;20042;-73
2022/02/22 05:47:57;;;;;;;1.48;0.30;;;4.00;90.70;;;;;;4966624;28;20074;-74
2022/02/22 05:50:23;;;;;;;0.65;0.20;;;4.20;90.30;;;;;;4966042;28;20062;-74
2022/02/22 05:52:48;;;;;;;0.30;0.20;;;4.40;89.70;;;;;;4966245;28;20586;-73
2022/02/22 05:55:14;;;;;;;7.78;1.08;;;4.50;90.00;;;;;;4966652;28;20522;-73
2022/02/22 05:57:40;;;;;;;0.22;0.22;;;4.50;90.00;;;;;;4965592;28;20109;-73
2022/02/22 06:00:08;;;;;;;0.00;0.00;;;4.40;90.10;;;;;;4965352;28;20046;-73
2022/02/22 06:02:33;;;;;;;0.43;0.30;;;4.30;90.80;;;;;;4965703;28;20031;-74
2022/02/22 06:04:59;;;;;;;2.53;0.57;;;4.10;90.70;;;;;;4965837;28;20081;-73
2022/02/22 06:07:25;;;;;;;1.23;0.32;;;3.90;91.50;;;;;;4965532;28;20039;-73
2022/02/22 06:09:51;;;;;;;0.35;0.10;;;3.90;90.70;;;;;;4965388;28;20187;-73
2022/02/22 06:12:16;;;;;;;1.00;0.30;;;4.00;91.00;;;;;;4965990;28;20027;-73
2022/02/22 06:14:42;;;;;;;0.63;0.30;;;4.10;91.20;;;;;;4966548;28;20046;-73
2022/02/22 06:17:07;;;;;;;0.65;0.28;;;4.10;90.90;;;;;;4966514;28;20122;-74
2022/02/22 06:19:33;;;;;;;1.88;0.35;;;4.00;91.00;;;;;;4964726;28;20615;-73
2022/02/22 06:21:59;;;;;;;0.52;0.25;;;3.90;91.30;;;;;;4967768;28;20031;-73
2022/02/22 06:24:24;;;;;;;0.28;0.10;;;3.80;91.20;;;;;;4962579;28;20062;-73
2022/02/22 06:26:50;;;;;;;1.25;0.70;;;3.70;91.30;;;;;;4963235;28;20069;-74
2022/02/22 06:29:16;;;;;;;0.73;0.10;;;3.80;91.00;;;;;;4962666;28;20431;-73
2022/02/22 06:31:42;;;;;;;1.38;0.30;;;3.70;91.50;;;;;;4959704;28;20098;-72
2022/02/22 06:34:07;;;;;;;2.78;0.70;;;3.80;91.30;;;;;;4962182;28;20507;-73
2022/02/22 06:36:34;;;;;;;1.98;0.38;;;4.00;91.30;;;;;;4961009;28;20105;-74
2022/02/22 06:39:00;;;;;;;1.00;0.30;;;4.10;91.70;;;;;;4960900;28;20122;-74
2022/02/22 06:41:27;;;;;;;1.55;0.50;;;3.80;91.60;;;;;;4965128;28;20042;-73
2022/02/22 06:43:53;;;;;;;1.15;0.32;;;3.70;91.50;;;;;;4966173;28;20062;-73
2022/02/22 06:46:18;;;;;;;0.77;0.30;;;3.70;91.70;;;;;;4967199;28;20062;-74
2022/02/22 06:48:44;;;;;;;1.55;0.30;;;3.50;91.90;;;;;;4969998;28;20035;-73
2022/02/22 06:51:10;;;;;;;2.42;0.52;;;3.70;91.40;;;;;;4965336;28;20230;-74
2022/02/22 06:53:35;;;;;;;0.85;0.47;;;3.90;90.80;;;;;;4965992;28;20082;-74
2022/02/22 06:56:02;;;;;;;0.60;0.40;;;4.00;90.90;;;;;;4966144;28;20023;-73
2022/02/22 06:58:28;;;;;;;0.95;0.43;;;4.00;91.10;;;;;;4966343;28;20054;-72
2022/02/22 07:00:56;;;;;;;1.15;0.55;;;4.00;91.30;;;;;;4965310;28;20481;-73
2022/02/22 07:03:22;;;;;;;2.45;0.68;;;4.00;91.20;;;;;;4965680;28;20050;-73
2022/02/22 07:05:48;;;;;;;3.03;1.05;;;3.80;91.80;;;;;;4965636;28;20082;-73
2022/02/22 07:08:13;;;;;;;3.67;1.25;;;3.70;91.60;;;;;;4964208;28;20035;-73
2022/02/22 07:10:39;;;;;;;2.38;0.88;;;3.80;91.50;;;;;;4960447;28;20031;-73
2022/02/22 07:13:05;;;;;;;1.00;0.32;;;3.80;91.60;;;;;;4961170;28;20054;-73
2022/02/22 07:15:30;;;;;;;1.67;0.40;;;3.60;91.90;;;;;;4957116;28;20385;-73
2022/02/22 07:17:58;;;;;;;0.50;0.10;;;3.60;92.20;;;;;;4946199;28;20030;-73
2022/02/22 07:20:25;;;;;;;0.50;0.30;;;3.60;91.90;;;;;;4957342;28;20042;-73
2022/02/22 07:22:57;;;;;;;1.45;0.30;;;3.80;91.60;;;;;;4961509;28;20035;-73
2022/02/22 07:25:24;;;;;;;0.43;0.30;;;3.90;91.50;;;;;;4960831;28;20027;-73
2022/02/22 07:27:50;;;;;;;1.15;0.40;;;3.80;91.70;;;;;;4961029;28;20033;-73
2022/02/22 07:30:18;;;;;;;0.45;0.28;;;3.70;91.90;;;;;;4980367;28;20042;-73
2022/02/22 07:32:45;;;;;;;0.60;0.35;;;3.70;92.00;;;;;;4965643;28;20030;-73
2022/02/22 07:35:11;;;;;;;1.05;0.38;;;3.90;91.40;;;;;;4965089;28;20114;-73
2022/02/22 07:37:38;;;;;;;0.90;0.10;;;4.00;91.80;;;;;;4965260;28;20143;-73
2022/02/22 07:40:06;;;;;;;2.40;0.40;;;3.90;92.10;;;;;;4964929;28;20101;-73
2022/02/22 07:42:31;;;;;;;0.73;0.20;;;3.90;92.00;;;;;;4961438;28;20034;-73
2022/02/22 07:44:57;;;;;;;2.17;1.02;;;3.80;91.90;;;;;;4958405;28;20047;-73
2022/02/22 07:47:22;;;;;;;2.33;0.50;;;3.90;91.70;;;;;;4960824;28;20035;-73
2022/02/22 07:49:48;;;;;;;4.55;0.80;;;3.80;92.50;;;;;;4965158;28;20098;-73
2022/02/22 07:52:14;;;;;;;2.28;0.45;;;3.80;92.10;;;;;;4965027;28;20023;-72
2022/02/22 07:54:40;;;;;;;1.55;0.60;;;3.80;92.50;;;;;;4964692;28;20114;-72
2022/02/22 07:57:06;;;;;;;1.92;0.73;;;3.90;91.80;;;;;;4964864;28;20085;-73
2022/02/22 07:59:31;;;;;;;0.85;0.50;;;3.90;91.80;;;;;;4964843;28;20049;-72
2022/02/22 08:01:57;;;;;;;1.05;0.50;;;4.00;91.60;;;;;;4965090;28;20439;-72
2022/02/22 08:04:26;;;;;;;4.13;0.63;;;4.20;91.50;;;;;;4965242;28;20131;-72
2022/02/22 08:06:56;;;;;;;3.72;0.77;;;4.10;92.00;;;;;;4964816;28;20478;-72
2022/02/22 08:09:22;;;;;;;1.55;0.43;;;4.10;92.60;;;;;;4965047;28;20089;-72
2022/02/22 08:11:48;;;;;;;0.73;0.30;;;4.00;92.30;;;;;;4965520;28;20035;-72
2022/02/22 08:14:14;;;;;;;1.02;0.40;;;4.00;92.30;;;;;;4965289;28;20045;-73
2022/02/22 08:16:40;;;;;;;1.50;0.70;;;4.00;92.30;;;;;;4965015;28;20031;-73
2022/02/22 08:19:07;;;;;;;4.15;1.05;;;4.10;92.10;;;;;;4964998;28;20376;-73
2022/02/22 08:21:33;;;;;;;3.45;0.65;;;4.10;91.90;;;;;;4962104;28;20159;-73
2022/02/22 08:23:59;;;;;;;2.35;0.90;;;4.20;91.90;;;;;;4964031;28;20425;-76
2022/02/22 08:26:25;;;;;;;1.75;0.55;;;4.20;92.00;;;;;;4964770;28;20037;-72
2022/02/22 08:28:51;;;;;;;2.28;1.00;;;5.00;90.30;;;;;;4966595;28;20109;-73
2022/02/22 08:31:17;;;;;;;2.03;0.90;;;5.00;90.60;;;;;;4969039;28;20114;-73
2022/02/22 08:33:42;;;;;;;2.33;1.02;;;4.80;91.10;;;;;;4968744;28;20425;-74
2022/02/22 08:36:10;;;;;;;1.60;0.60;;;4.70;91.10;;;;;;4969571;28;20035;-76
2022/02/22 08:38:36;;;;;;;9.27;3.30;;;4.80;91.20;;;;;;4971540;28;20114;-74
2022/02/22 08:41:02;;;;;;;1.98;1.00;;;6.00;91.10;;;;;;4971889;28;20034;-73
2022/02/22 08:43:27;;;;;;;5.35;1.35;;;5.50;90.40;;;;;;4972274;28;20033;-74
2022/02/22 08:45:53;;;;;;;1.75;0.80;;;5.30;90.90;;;;;;4972027;28;20027;-74
2022/02/22 08:48:19;;;;;;;1.85;0.80;;;5.20;91.50;;;;;;4971948;28;20041;-74
2022/02/22 08:50:45;;;;;;;1.95;1.25;;;5.20;91.50;;;;;;4972337;28;20421;-75
2022/02/22 08:53:12;;;;;;;1.67;0.60;;;5.40;91.10;;;;;;4972051;28;20481;-74
2022/02/22 08:55:38;;;;;;;2.47;0.98;;;5.70;89.90;;;;;;4972075;28;20034;-78
2022/02/22 08:58:05;;;;;;;2.55;1.05;;;5.60;90.80;;;;;;4972010;28;20667;-74
2022/02/22 09:00:36;;;;;;;2.67;1.10;;;5.60;90.90;;;;;;4971500;28;20609;-74
2022/02/22 09:03:03;;;;;;;1.05;0.28;;;6.00;89.00;;;;;;4971732;28;20121;-74
2022/02/22 09:05:30;;;;;;;0.77;0.20;;;7.60;82.20;;;;;;4969186;28;20603;-75
2022/02/22 09:07:57;;;;;;;4.75;1.90;;;7.50;82.30;;;;;;4969375;28;20046;-74
2022/02/22 09:10:23;;;;;;;3.85;1.33;;;7.10;86.00;;;;;;4970593;28;20357;-75
2022/02/22 09:12:50;;;;;;;0.40;0.40;;;7.40;82.10;;;;;;4971925;28;20027;-75
2022/02/22 09:15:18;;;;;;;0.70;0.55;;;7.70;81.70;;;;;;4972240;28;20031;-74
2022/02/22 09:17:45;;;;;;;1.63;0.60;;;7.50;84.80;;;;;;4972046;28;20492;-75
2022/02/22 09:20:12;;;;;;;1.13;0.40;;;7.40;84.00;;;;;;4971573;28;20035;-74
2022/02/22 09:22:38;;;;;;;0.43;0.20;;;7.40;83.90;;;;;;4971817;28;20027;-74
2022/02/22 09:25:07;;;;;;;0.05;0.05;;;7.80;81.00;;;;;;4972167;28;20054;-76
2022/02/22 09:27:32;;;;;;;1.10;0.50;;;7.80;82.00;;;;;;4971703;28;20057;-77
2022/02/22 09:29:58;;;;;;;0.63;0.20;;;7.90;80.80;;;;;;4971470;28;20494;-75
2022/02/22 09:32:24;;;;;;;1.45;0.38;;;7.80;81.00;;;;;;4971322;28;20034;-75
2022/02/22 09:34:51;;;;;;;0.88;0.32;;;7.90;80.70;;;;;;4971338;28;20066;-74
2022/02/22 09:37:17;;;;;;;0.52;0.20;;;7.80;80.80;;;;;;4971772;28;20023;-75
2022/02/22 09:39:43;;;;;;;0.52;0.30;;;8.00;80.30;;;;;;4970085;28;20050;-75
2022/02/22 09:42:09;;;;;;;1.00;0.40;;;8.00;79.20;;;;;;4970929;28;20094;-75
2022/02/22 09:44:38;;;;;;;1.85;0.30;;;8.00;80.00;;;;;;4971005;28;20029;-75
2022/02/22 09:47:05;;;;;;;1.45;0.60;;;8.00;79.20;;;;;;4971203;28;20492;-75
2022/02/22 09:49:31;;;;;;;1.35;0.85;;;8.10;80.20;;;;;;4970635;28;20054;-75
2022/02/22 09:51:58;;;;;;;0.70;0.40;;;8.10;79.60;;;;;;4971046;28;20066;-75
2022/02/22 09:54:24;;;;;;;1.50;0.52;;;8.10;80.60;;;;;;4970733;28;20050;-75
2022/02/22 09:56:51;;;;;;;1.67;0.60;;;8.10;79.00;;;;;;4970949;28;20078;-75
2022/02/22 09:59:17;;;;;;;4.05;0.85;;;8.20;80.80;;;;;;4970611;28;20548;-78
2022/02/22 10:01:46;;;;;;;2.35;0.90;;;8.30;80.90;;;;;;4970486;28;20031;-74
2022/02/22 10:04:12;;;;;;;2.50;1.20;;;8.60;81.00;;;;;;4969652;28;20047;-74
2022/02/22 10:06:38;;;;;;;1.10;0.55;;;8.60;80.90;;;;;;4970058;28;20121;-74
2022/02/22 10:09:05;;;;;;;3.17;0.70;;;8.80;81.50;;;;;;4970951;28;20110;-74
2022/02/22 10:11:51;;;;;;;1.58;0.60;;;8.80;80.40;;;;;;4970436;28;20061;-74
2022/02/22 10:14:28;;;;;;;3.95;0.63;;;9.00;75.90;;;;;;4969617;28;20070;-74
2022/02/22 10:16:55;;;;;;;1.45;0.40;;;9.10;78.30;;;;;;4970872;28;20105;-74
2022/02/22 10:19:24;;;;;;;6.68;1.70;;;9.30;77.10;;;;;;4970021;28;20035;-74
2022/02/22 10:21:54;;;;;;;1.77;0.70;;;9.50;79.50;;;;;;4970592;28;20019;-74
2022/02/22 10:24:21;;;;;;;2.33;0.65;;;9.20;79.70;;;;;;4969483;28;20050;-74
2022/02/22 10:26:48;;;;;;;2.25;1.00;;;9.10;80.10;;;;;;4970569;28;20414;-74
2022/02/22 10:29:13;;;;;;;1.45;0.63;;;9.00;80.40;;;;;;4969565;28;20461;-74
2022/02/22 10:31:40;;;;;;;0.55;0.20;;;9.00;78.70;;;;;;4969319;28;20080;-74
2022/02/22 10:34:06;;;;;;;0.65;0.30;;;10.90;65.50;;;;;;4969379;28;20038;-74
2022/02/22 10:36:38;;;;;;;3.30;0.28;;;10.90;67.10;;;;;;4970109;28;20081;-74
2022/02/22 10:39:08;;;;;;;2.42;0.30;;;11.00;66.50;;;;;;4969764;28;20038;-74
2022/02/22 10:41:36;;;;;;;0.82;0.00;;;11.10;65.20;;;;;;4969223;28;20039;-74
2022/02/22 10:44:02;;;;;;;0.00;0.00;;;11.80;59.70;;;;;;4969868;28;20022;-74
2022/02/22 10:46:32;;;;;;;0.45;0.20;;;12.00;59.70;;;;;;4969348;28;20027;-74
2022/02/22 10:49:12;;;;;;;0.98;0.20;;;11.90;59.00;;;;;;4969492;28;20034;-74
2022/02/22 10:51:51;;;;;;;1.02;0.22;;;12.10;60.00;;;;;;4967921;28;20038;-74
2022/02/22 10:54:20;;;;;;;1.08;0.20;;;12.20;57.40;;;;;;4969350;28;20038;-75
2022/02/22 10:56:46;;;;;;;2.10;0.20;;;12.20;56.50;;;;;;4968885;28;20089;-75
2022/02/22 10:59:12;;;;;;;0.43;0.10;;;12.40;55.70;;;;;;4969355;28;20053;-75
2022/02/22 11:01:38;;;;;;;0.60;0.00;;;12.50;56.70;;;;;;4968167;28;20469;-74
2022/02/22 11:04:05;;;;;;;0.68;0.20;;;12.60;54.80;;;;;;4968624;28;20121;-74
2022/02/22 11:06:31;;;;;;;0.45;0.10;;;12.90;54.10;;;;;;4969190;28;20035;-75
2022/02/22 11:08:58;;;;;;;0.75;0.10;;;12.80;56.00;;;;;;4969214;28;20113;-75
2022/02/22 11:11:32;;;;;;;0.35;0.10;;;12.80;53.70;;;;;;4968583;28;20041;-75
2022/02/22 11:14:17;;;;;;;0.82;0.15;;;12.90;54.30;;;;;;4968691;28;20097;-75
2022/02/22 11:16:50;;;;;;;;;;;13.00;53.60;;;;;;4969275;28;20035;-75
2022/02/22 11:19:27;;;;;;;1.75;0.22;;;12.90;53.80;;;;;;4968786;28;19969;-75
2022/02/22 11:22:08;;;;;;;0.10;0.03;;;13.00;54.50;;;;;;4967300;28;20050;-74
2022/02/22 11:24:45;;;;;;;0.32;0.10;;;12.70;53.00;;;;;;4968824;28;20038;-74
2022/02/22 11:27:10;;;;;;;0.00;0.00;;;12.90;54.60;;;;;;4983587;28;20066;-74
2022/02/22 11:29:36;;;;;;;0.45;0.17;;;13.10;54.20;;;;;;4968633;28;20054;-74
2022/02/22 11:32:08;;;;;;;0.28;0.10;;;13.10;54.20;;;;;;4974644;28;20520;-74
2022/02/22 11:34:40;;;;;;;0.30;0.10;;;13.00;55.20;;;;;;4949226;28;20035;-74
2022/02/22 11:37:08;;;;;;;1.33;0.10;;;13.10;54.80;;;;;;4949242;28;20042;-73
2022/02/22 11:39:51;;;;;;;2.25;0.60;;;13.00;55.30;;;;;;4948967;28;20032;-74
2022/02/22 11:42:28;;;;;;;0.93;0.20;;;13.00;53.30;;;;;;4958427;28;20031;-74
2022/02/22 11:45:01;;;;;;;0.17;0.10;;;13.20;52.50;;;;;;4968154;28;20030;-74
2022/02/22 11:47:28;;;;;;;0.30;0.10;;;13.20;53.20;;;;;;4968147;28;20477;-74
2022/02/22 11:49:56;;;;;;;1.17;0.20;;;13.40;53.20;;;;;;4968197;28;20069;-74
2022/02/22 11:52:35;;;;;;;2.30;0.25;;;13.50;55.40;;;;;;4967782;28;20122;-74
2022/02/22 11:55:02;;;;;;;0.65;0.15;;;13.60;54.90;;;;;;4967348;28;20055;-74
2022/02/22 11:57:28;;;;;;;0.10;0.10;;;13.50;54.40;;;;;;4967281;28;20039;-74
2022/02/22 12:00:03;;;;;;;1.95;0.85;;;13.70;53.70;;;;;;4968195;28;20035;-74
2022/02/22 12:02:34;;;;;;;0.43;0.10;;;13.70;53.90;;;;;;4967445;28;20330;-74
2022/02/22 12:05:21;;;;;;;0.80;0.17;;;13.50;53.60;;;;;;4968192;28;20054;-74
2022/02/22 12:07:59;;;;;;;1.05;0.43;;;13.40;53.50;;;;;;4958906;28;20043;-74
2022/02/22 12:10:25;;;;;;;0.20;0.10;;;13.40;51.10;;;;;;4948602;28;20033;-74
2022/02/22 12:12:51;;;;;;;0.63;0.10;;;13.40;53.10;;;;;;4948662;28;20122;-75
2022/02/22 12:15:17;;;;;;;2.67;1.60;;;13.70;53.60;;;;;;4948670;28;20122;-75
2022/02/22 12:17:44;;;;;;;0.30;0.20;;;13.70;53.20;;;;;;4958609;28;20591;-74
2022/02/22 12:20:10;;;;;;;0.52;0.20;;;13.70;52.80;;;;;;4967186;28;20038;-74
2022/02/22 12:22:38;;;;;;;0.43;0.22;;;13.70;52.30;;;;;;4967701;28;20644;-74
2022/02/22 12:25:06;;;;;;;2.90;0.10;;;13.70;53.10;;;;;;4967918;28;20034;-74
2022/02/22 12:27:34;;;;;;;0.00;0.00;;;13.70;52.50;;;;;;4967866;28;20033;-74
2022/02/22 12:30:00;;;;;;;1.80;0.20;;;13.90;51.90;;;;;;4967710;28;20039;-74
2022/02/22 12:32:35;;;;;;;0.45;0.10;;;13.60;52.50;;;;;;4967691;28;20619;-74
2022/02/22 12:35:06;;;;;;;1.10;0.32;;;13.70;52.60;;;;;;4967808;28;20027;-74
2022/02/22 12:37:42;;;;;;;2.47;0.20;;;13.80;52.60;;;;;;4967385;28;20086;-74
2022/02/22 12:40:11;;;;;;;0.73;0.30;;;13.70;52.00;;;;;;4967455;28;20039;-74
2022/02/22 12:42:36;;;;;;;0.95;0.30;;;13.90;52.30;;;;;;4967564;28;20078;-74
2022/02/22 12:45:15;;;;;;;0.47;0.10;;;14.00;52.50;;;;;;4967947;28;20027;-74
2022/02/22 12:47:41;;;;;;;1.88;0.20;;;13.80;52.50;;;;;;4967308;28;20082;-75
2022/02/22 12:50:07;;;;;;;0.80;0.10;;;13.90;52.00;;;;;;4968049;28;20055;-75
2022/02/22 12:52:32;;;;;;;0.50;0.10;;;14.00;54.30;;;;;;4967961;28;20022;-74
2022/02/22 12:55:09;;;;;;;0.63;0.20;;;14.10;52.80;;;;;;4982481;28;20061;-75
2022/02/22 12:57:35;;;;;;;0.90;0.30;;;14.00;52.00;;;;;;4967156;28;20058;-75
2022/02/22 13:00:06;;;;;;;1.00;0.15;;;13.90;51.90;;;;;;4968471;28;20979;-75
2022/02/22 13:02:31;;;;;;;0.52;0.20;;;13.90;51.20;;;;;;4967828;28;20030;-75
2022/02/22 13:04:57;;;;;;;2.70;0.20;;;14.10;52.60;;;;;;4968599;28;20035;-75
2022/02/22 13:07:23;;;;;;;0.65;0.43;;;14.00;52.10;;;;;;4968066;28;20068;-75
2022/02/22 13:09:49;;;;;;;0.50;0.20;;;14.30;52.30;;;;;;4968494;28;20093;-75
2022/02/22 13:12:20;;;;;;;0.00;0.00;;;14.10;50.90;;;;;;4968039;28;20477;-75
2022/02/22 13:14:49;;;;;;;0.38;0.15;;;14.10;51.30;;;;;;4968220;28;20041;-75
2022/02/22 13:17:17;;;;;;;1.35;0.30;;;14.20;52.70;;;;;;4971125;28;20428;-75
2022/02/22 13:19:52;;;;;;;0.08;0.00;;;14.30;51.70;;;;;;4970913;28;20030;-75
2022/02/22 13:22:27;;;;;;;1.55;0.10;;;14.20;51.60;;;;;;4971378;28;20094;-75
2022/02/22 13:25:04;;;;;;;0.32;0.10;;;14.30;52.20;;;;;;4971514;28;20054;-75
2022/02/22 13:27:31;;;;;;;0.28;0.10;;;14.20;51.70;;;;;;4971279;28;20027;-75
2022/02/22 13:30:06;;;;;;;0.85;0.22;;;14.20;51.40;;;;;;4970580;28;20604;-75
2022/02/22 13:32:34;;;;;;;0.60;0.10;;;14.20;53.00;;;;;;4971665;28;20046;-75
2022/02/22 13:35:00;;;;;;;0.57;0.10;;;14.30;51.50;;;;;;4971544;28;20054;-74
2022/02/22 13:37:27;;;;;;;1.20;0.15;;;14.30;52.80;;;;;;4971477;28;20120;-75
2022/02/22 13:40:11;;;;;;;0.65;0.08;;;14.30;50.80;;;;;;4971133;28;20023;-75
2022/02/22 13:42:38;;;;;;;1.02;0.13;;;14.50;51.00;;;;;;4971144;28;20035;-75
2022/02/22 13:45:07;;;;;;;0.35;0.10;;;14.40;50.60;;;;;;4971148;28;20916;-75
2022/02/22 13:47:35;;;;;;;0.57;0.10;;;14.60;52.10;;;;;;4971388;28;20042;-75
2022/02/22 13:50:31;;;;;;;0.60;0.15;;;14.60;51.50;;;;;;4970826;28;20145;-75
2022/02/22 13:53:07;;;;;;;0.45;0.10;;;14.60;52.30;;;;;;4966324;28;20046;-75
2022/02/22 13:55:37;;;;;;;0.60;0.20;;;14.60;50.80;;;;;;4970878;28;20062;-75
2022/02/22 13:58:05;;;;;;;0.45;0.20;;;14.30;49.60;;;;;;4970754;28;20031;-75
2022/02/22 14:00:43;;;;;;;0.25;0.10;;;14.30;50.60;;;;;;4969941;28;20097;-75
2022/02/22 14:03:09;;;;;;;0.57;0.17;;;14.40;50.70;;;;;;4970193;28;20065;-75
2022/02/22 14:05:35;;;;;;;2.25;0.40;;;14.50;50.30;;;;;;4970849;28;20031;-75
2022/02/22 14:08:02;;;;;;;1.42;0.20;;;14.40;49.70;;;;;;4970784;28;20595;-75
2022/02/22 14:10:29;;;;;;;0.00;0.00;;;14.50;51.60;;;;;;4971210;28;20469;-75
2022/02/22 14:12:55;;;;;;;0.47;0.15;;;14.50;52.00;;;;;;4970145;28;20049;-75
2022/02/22 14:15:21;;;;;;;1.55;0.17;;;14.70;51.50;;;;;;4970800;28;20126;-75
2022/02/22 14:17:47;;;;;;;2.83;0.20;;;14.60;49.90;;;;;;4970859;28;20110;-75
2022/02/22 14:20:13;;;;;;;0.65;0.10;;;14.40;49.60;;;;;;4970863;28;20026;-75
2022/02/22 14:22:40;;;;;;;0.65;0.20;;;14.40;50.50;;;;;;4970353;28;20481;-75
2022/02/22 14:25:06;;;;;;;1.10;0.20;;;14.60;51.20;;;;;;4969842;28;20078;-75
2022/02/22 14:27:32;;;;;;;0.10;0.10;;;14.70;51.10;;;;;;4969961;28;20027;-75
2022/02/22 14:29:57;;;;;;;0.45;0.30;;;14.60;50.90;;;;;;4970358;28;20097;-75
2022/02/22 14:32:23;;;;;;;0.13;0.05;;;14.50;50.30;;;;;;4969230;28;20035;-75
2022/02/22 14:34:50;;;;;;;1.02;0.10;;;14.50;50.50;;;;;;4970305;28;20041;-75
2022/02/22 14:37:15;;;;;;;0.50;0.30;;;14.70;51.80;;;;;;4970529;28;20031;-75
2022/02/22 14:39:41;;;;;;;0.20;0.10;;;14.60;50.60;;;;;;4985324;28;20596;-75
2022/02/22 14:42:07;;;;;;;0.28;0.10;;;14.60;51.50;;;;;;4969829;28;20031;-75